Nearby METAR Reports

 

KEWR - Newark, New Jersey, USA
Distance from station: NW 15mi, 25km
Updated: Sun, 20-Jan-2019 10:51pm EST
Mostly cloudy
Mostly cloudy
 Wind from WNW
Wind: WNW 18 mph , 30 km/h
Temperature: 16°F , -9°C
Wind Chill: -0°F , -18°C
Dew Point: 1°F , -17°C
Humidity: 53%
Barometer: 29.77 inHg , 1008.1 hPa
Clouds: Mostly cloudy
Visibility: 10 miles , 16 km
Cloud details: Mostly cloudy 3400 ft
2019/01/21 03:51 KEWR 210351Z 30016KT 10SM BKN034 M09/M17 A2977 RMK AO2 PK WND 31032/0336 SLP081 T10941167 $
KJFK - Nyc/Jfk Arpt, New York, USA
Distance from station: NE 15mi, 25km
Updated: Sun, 20-Jan-2019 10:51pm EST
Few Clouds
Few Clouds
 Wind from NW
Wind: NW 25 mph , 41 km/h, Gust: 36 mph , 57 km/h
Temperature: 16°F , -9°C
Wind Chill: -3°F , -19°C
Dew Point: 3°F , -16°C
Humidity: 57%
Barometer: 29.75 inHg , 1007.5 hPa
Clouds: Few Clouds
Visibility: 10 miles , 16 km
Cloud details: Few Clouds 4000 ft
2019/01/21 03:51 KJFK 210351Z 31022G31KT 10SM FEW040 M09/M16 A2975 RMK AO2 PK WND 32038/0303 SLP074 T10941161
 
KLDJ - Linden, New Jersey, USA
Distance from station: WNW 15mi, 25km
Updated: Sun, 20-Jan-2019 11:15pm EST
Clear
Clear
 Wind from NW
Wind: NW 18 mph , 30 km/h, Gust: 32 mph , 52 km/h
Temperature: 14°F , -10°C
Wind Chill: -3°F , -19°C
Dew Point: 1°F , -17°C
Humidity: 57%
Barometer: 29.80 inHg , 1009.1 hPa
Clouds: Clear
Visibility: 10 miles , 16 km
2019/01/21 04:15 KLDJ 210415Z AUTO 31016G28KT 10SM CLR M10/M17 A2980 RMK AO2 T10961168
KNYC - Nyc/Central Park, New York, USA
Distance from station: N 20mi, 32km
Updated: Sun, 20-Jan-2019 10:51pm EST
Partly cloudy
Partly cloudy
 
Temperature: 16°F , -9°C
Dew Point: 3°F , -16°C
Humidity: 57%
Barometer: 29.77 inHg , 1008.1 hPa
Clouds: Partly cloudy
Visibility: 10 miles , 16 km
Cloud details: Partly cloudy 3300 ft
2019/01/21 03:51 KNYC 210351Z AUTO 10SM SCT033 M09/M16 A2977 RMK AO2 SLP073 T10941161 $
 
KLGA - Nyc/La Guardia, New York, USA
Distance from station: NNE 21mi, 33km
Updated: Sun, 20-Jan-2019 10:51pm EST
Partly cloudy
Partly cloudy
 Wind from NW
Wind: NW 21 mph , 33 km/h, Gust: 31 mph , 50 km/h
Temperature: 16°F , -9°C
Wind Chill: -1°F , -18°C
Dew Point: 7°F , -14°C
Humidity: 67%
Barometer: 29.75 inHg , 1007.5 hPa
Clouds: Partly cloudy
Visibility: 10 miles , 16 km
Cloud details: Partly cloudy 3500 ft
2019/01/21 03:51 KLGA 210351Z 31018G27KT 10SM SCT035 M09/M14 A2975 RMK AO2 PK WND 31036/0312 SLP073 T10891144 $
KBLM - Belmar/Farmdale, New Jersey, USA
Distance from station: SSW 24mi, 38km
Updated: Sun, 20-Jan-2019 10:56pm EST
Few Clouds
Few Clouds
 Wind from W
Wind: W 22 mph , 35 km/h, Gust: 41 mph , 67 km/h
Temperature: 16°F , -9°C
Wind Chill: -2°F , -19°C
Dew Point: 3°F , -16°C
Humidity: 57%
Barometer: 29.78 inHg , 1008.5 hPa
Clouds: Few Clouds
Visibility: 10 miles , 16 km
Cloud details: Few Clouds 3400 ft
2019/01/21 03:56 KBLM 210356Z AUTO 28019G36KT 250V310 10SM FEW034 M09/M16 A2978 RMK AO2 PK WND 32036/0350 SLP088 T10941161 FZRANO
 
KTEB - Teterboro, New Jersey, USA
Distance from station: N 25mi, 41km
Updated: Sun, 20-Jan-2019 10:51pm EST
Mostly cloudy
Mostly cloudy
 Wind from NNW
Wind: NNW 10 mph , 17 km/h, Gust: 20 mph , 31 km/h
Temperature: 16°F , -9°C
Wind Chill: 4°F , -16°C
Dew Point: 3°F , -16°C
Humidity: 57%
Barometer: 29.76 inHg , 1007.8 hPa
Clouds: Mostly cloudy
Visibility: 10 miles , 16 km
Cloud details: Mostly cloudy 3300 ft
2019/01/21 03:51 KTEB 210351Z 33009G17KT 10SM BKN033 M09/M16 A2976 RMK AO2 PK WND 34028/0308 SLP077 T10941156 $
KMMU - Morristown Muni, New Jersey, USA
Distance from station: NW 29mi, 47km
Updated: Sun, 20-Jan-2019 11:15pm EST
Clear
Clear
 Wind from WNW
Wind: WNW 12 mph , 19 km/h, Gust: 25 mph , 41 km/h
Temperature: 14°F , -10°C
Wind Chill: 0°F , -18°C
Dew Point: 1°F , -17°C
Humidity: 57%
Barometer: 29.79 inHg , 1008.8 hPa
Clouds: Clear
Visibility: 10 miles , 16 km
2019/01/21 04:15 KMMU 210415Z AUTO 30010G22KT 10SM CLR M10/M17 A2979 RMK AO2
 
KCDW - Caldwell, New Jersey, USA
Distance from station: NNW 30mi, 49km
Updated: Sun, 20-Jan-2019 10:53pm EST
Clear
Clear
 Wind from NW
Wind: NW 18 mph , 30 km/h, Gust: 28 mph , 44 km/h
Temperature: 12°F , -11°C
Wind Chill: -5°F , -21°C
Dew Point: 1°F , -17°C
Humidity: 62%
Barometer: 29.77 inHg , 1008.1 hPa
Clouds: Clear
Visibility: 10 miles , 16 km
2019/01/21 03:53 KCDW 210353Z 31016G24KT 10SM CLR M11/M17 A2977 RMK AO2 PK WND 31032/0333 SLP088 T11061172
KFRG - Farmingdale, New York, USA
Distance from station: ENE 35mi, 56km
Updated: Sun, 20-Jan-2019 10:53pm EST
Clear
Clear
 Wind from NW
Wind: NW 18 mph , 30 km/h, Gust: 29 mph , 46 km/h
Temperature: 14°F , -10°C
Wind Chill: -3°F , -19°C
Dew Point: 1°F , -17°C
Humidity: 57%
Barometer: 29.71 inHg , 1006.1 hPa
Clouds: Clear
Visibility: 10 miles , 16 km
2019/01/21 03:53 KFRG 210353Z 31016G25KT 10SM CLR M10/M17 A2971 RMK AO2 SLP060 T11001167
 
KSMQ - Somerville, New Jersey, USA
Distance from station: WNW 36mi, 58km
Updated: Sun, 20-Jan-2019 10:53pm EST
Partly cloudy
Partly cloudy
 Wind from NW
Wind: NW 16 mph , 26 km/h, Gust: 24 mph , 39 km/h
Temperature: 14°F , -10°C
Wind Chill: -2°F , -19°C
Dew Point: 1°F , -17°C
Humidity: 57%
Barometer: 29.80 inHg , 1009.1 hPa
Clouds: Partly cloudy
Visibility: 10 miles , 16 km
Cloud details: Partly cloudy 3700 ft
2019/01/21 03:53 KSMQ 210353Z AUTO 31014G21KT 10SM SCT037 M10/M17 A2980 RMK AO2 PK WND 32031/0257 SLP093 T11001172
KNEL - Lakehurst Nas, New Jersey, USA
Distance from station: SSW 38mi, 61km
Updated: Sun, 20-Jan-2019 11:00pm EST
Light rain, Clear
Light rain, Clear
 Wind from NW
Wind: NW 16 mph , 26 km/h, Gust: 35 mph , 56 km/h
Barometer: 29.78 inHg , 1008.5 hPa
Summary: Light rain
Clouds: Clear
2019/01/21 04:00 KNEL 210400Z AUTO 31014G30KT -RA CLR A2978 RMK AO2 PK WND 32030/0357 RAB0332 SLPNO PNO $
 
KHPN - White Plains, New York, USA
Distance from station: NNE 42mi, 68km
Updated: Sun, 20-Jan-2019 10:56pm EST
Clear
Clear
 Wind from NW
Wind: NW 23 mph , 37 km/h, Gust: 29 mph , 46 km/h
Temperature: 12°F , -11°C
Wind Chill: -7°F , -22°C
Dew Point: 1°F , -17°C
Humidity: 62%
Barometer: 29.68 inHg , 1005.1 hPa
Clouds: Clear
Visibility: 10 miles , 16 km
2019/01/21 03:56 KHPN 210356Z 31020G25KT 10SM CLR M11/M17 A2968 RMK AO2 PK WND 32032/0325 SLP062 T11111167 $
KMJX - Toms River, New Jersey, USA
Distance from station: SSW 42mi, 68km
Updated: Sun, 20-Jan-2019 10:56pm EST
Clear
Clear
 Wind from NNW
Wind: NNW 20 mph , 31 km/h, Gust: 31 mph , 50 km/h
Temperature: 18°F , -8°C
Wind Chill: 2°F , -17°C
Dew Point: 5°F , -15°C
Humidity: 58%
Barometer: 29.79 inHg , 1008.8 hPa
Clouds: Clear
Visibility: 10 miles , 16 km
2019/01/21 03:56 KMJX 210356Z AUTO 33017G27KT 300V360 10SM CLR M08/M15 A2979 RMK AO2 PK WND 32030/0345 SLP096 T10831150 FZRANO
 
KWRI - Wrightst/Mcguire, New Jersey, USA
Distance from station: SW 45mi, 73km
Updated: Sun, 20-Jan-2019 10:56pm EST
Partly cloudy
Partly cloudy
 Wind from NW
Wind: NW 25 mph , 41 km/h, Gust: 35 mph , 56 km/h
Temperature: 18°F , -8°C
Wind Chill: -0°F , -18°C
Dew Point: 3°F , -16°C
Humidity: 53%
Barometer: 29.78 inHg , 1008.5 hPa
Clouds: Partly cloudy
Visibility: 10 miles , 16 km
Cloud details: Partly cloudy 4000 ft
2019/01/21 03:56 KWRI 210356Z AUTO 31022G30KT 10SM SCT040 M08/M16 A2978 RMK AO2 PK WND 29035/47 SLP085 T10831164 $
KTTN - Trenton, New Jersey, USA
Distance from station: WSW 46mi, 73km
Updated: Sun, 20-Jan-2019 10:53pm EST
Few Clouds
Few Clouds
 Wind from WNW
Wind: WNW 20 mph , 31 km/h, Gust: 29 mph , 46 km/h
Temperature: 16°F , -9°C
Wind Chill: -1°F , -18°C
Dew Point: 1°F , -17°C
Humidity: 53%
Barometer: 29.80 inHg , 1009.1 hPa
Clouds: Few Clouds
Visibility: 10 miles , 16 km
Cloud details: Few Clouds 3100 ft
2019/01/21 03:53 KTTN 210353Z AUTO 30017G25KT 10SM FEW031 M09/M17 A2980 RMK AO2 PK WND 31030/0309 SLP089 T10891167